EW8530 Weather Reports


Display with metric or nautical units.
time (UTC)temp
F
wind
direction
speed
MPH
gust
MPH
rain 1hr
in
rain 24hr
in
rain mn
in
humidity
%
barometer
mb
20190825154627 71 248 2.0 5.0 0.00 0.00 0.00 21 1027.6
20190825153147 72 263 3.0 6.0 0.00 0.00 0.00 20 1027.5
20190825151650 73 276 3.0 6.0 0.00 0.00 0.00 20 1027.4
20190825150137 74 268 2.0 6.0 0.00 0.00 0.00 20 1027.3
20190825144629 75 249 4.0 8.0 0.00 0.00 0.00 19 1027.2
20190825141637 75 268 5.0 7.0 0.00 0.00 0.00 19 1027.1
20190825134631 76 194 4.0 10.0 0.00 0.00 0.00 19 1026.9
20190825133235 76 249 3.0 8.0 0.00 0.00 0.00 19 1027.0
20190825131641 76 231 4.0 10.0 0.00 0.00 0.00 19 1027.0
20190825124641 76 256 3.0 9.0 0.00 0.00 0.00 19 1027.2
20190825123204 76 239 4.0 10.0 0.00 0.00 0.00 19 1027.3
20190825121638 76 218 3.0 11.0 0.00 0.00 0.00 20 1027.5
20190825120135 75 287 7.0 11.0 0.00 0.00 0.00 21 1027.7
20190825114641 76 292 6.0 11.0 0.00 0.00 0.00 21 1028.0
20190825113126 75 244 7.0 12.0 0.00 0.00 0.00 21 1028.2
20190825111638 75 335 5.0 10.0 0.00 0.00 0.00 23 1028.7
20190825110128 74 268 5.0 12.0 0.00 0.00 0.00 24 1028.9
20190825104641 74 270 8.0 11.0 0.00 0.00 0.00 23 1029.0
20190825101639 73 246 5.0 12.0 0.00 0.00 0.00 24 1029.6
20190825100128 72 304 7.0 10.0 0.00 0.00 0.00 25 1030.0
20190825094635 71 317 7.0 13.0 0.00 0.00 0.00 27 1030.4
20190825091646 70 289 6.0 13.0 0.00 0.00 0.00 31 1031.1
20190825084624 68 303 6.0 11.0 0.00 0.00 0.00 34 1031.7
20190825083130 67 313 5.0 12.0 0.00 0.00 0.00 35 1032.0
20190825081636 66 291 5.0 12.0 0.00 0.00 0.00 38 1032.0
20190825080127 65 310 5.0 11.0 0.00 0.00 0.00 40 1032.1
20190825074637 65 255 4.0 9.0 0.00 0.00 0.00 42 1032.4
20190825073126 63 356 4.0 10.0 0.00 0.00 0.00 44 1032.4
20190825071638 62 6 4.0 12.0 0.00 0.00 0.00 47 1032.4
20190825070146 61 266 5.0 10.0 0.00 0.00 0.00 49 1032.3
20190825064633 60 318 6.0 10.0 0.00 0.00 0.00 53 1032.2
20190825063133 58 313 5.0 11.0 0.00 0.00 0.00 56 1032.2
20190825061636 56 349 3.0 8.0 0.00 0.00 0.00 58 1032.2
20190825060137 54 342 3.0 6.0 0.00 0.00 0.00 60 1032.0
20190825054633 51 117 1.0 6.0 0.00 0.00 0.00 61 1031.9
20190825051642 48 130 0.0 1.0 0.00 0.00 0.00 64 1031.7
20190825050131 45 137 0.0 1.0 0.00 0.00 0.00 67 1031.6
20190825044629 42 137 0.0 1.0 0.00 0.00 0.00 69 1031.5
20190825043137 42 137 0.0 1.0 0.00 0.00 0.00 69 1031.4
20190825041633 42 137 0.0 1.0 0.00 0.00 0.00 67 1031.2
20190825040141 42 137 0.0 1.0 0.00 0.00 0.00 65 1031.2
20190825034641 42 137 0.0 0.0 0.00 0.00 0.00 64 1030.9
20190825031640 44 132 0.0 1.0 0.00 0.00 0.00 59 1030.8
20190825030129 45 131 0.0 1.0 0.00 0.00 0.00 57 1030.7
20190825024639 47 117 0.0 4.0 0.00 0.00 0.00 57 1030.6
20190825023128 48 324 2.0 4.0 0.00 0.00 0.00 55 1030.6
20190825021634 48 140 1.0 4.0 0.00 0.00 0.00 54 1030.5
20190825020127 47 329 2.0 4.0 0.00 0.00 0.00 53 1030.5
20190825014638 47 124 1.0 4.0 0.00 0.00 0.00 53 1030.5
20190825013140 47 337 1.0 3.0 0.00 0.00 0.00 50 1030.5
20190825011633 47 297 0.0 2.0 0.00 0.00 0.00 48 1030.5
20190825010149 47 225 0.0 2.0 0.00 0.00 0.00 45 1030.6
20190825004629 48 208 0.0 3.0 0.00 0.00 0.00 43 1030.8
20190825003139 49 355 1.0 3.0 0.00 0.00 0.00 42 1030.8
20190825001628 48 168 0.0 4.0 0.00 0.00 0.00 39 1030.9
20190825000140 49 144 0.0 4.0 0.00 0.00 0.00 36 1031.0
20190824234637 49 307 1.0 3.0 0.00 0.00 0.00 33 1031.1
20190824233132 50 168 0.0 4.0 0.00 0.00 0.00 31 1031.2
20190824231632 51 125 1.0 7.0 0.00 0.00 0.00 30 1031.3
20190824230143 51 315 3.0 7.0 0.00 0.00 0.00 30 1031.4
20190824224640 51 6 2.0 4.0 0.00 0.00 0.00 30 1031.6
20190824223127 51 272 2.0 5.0 0.00 0.00 0.00 29 1031.6
20190824221643 50 329 3.0 7.0 0.00 0.00 0.00 30 1031.7
20190824220135 47 135 1.0 3.0 0.00 0.00 0.00 36 1031.7
20190824214634 46 141 0.0 1.0 0.00 0.00 0.00 37 1031.8
20190824213136 46 141 0.0 1.0 0.00 0.00 0.00 37 1031.9
20190824211633 47 141 0.0 1.0 0.00 0.00 0.00 34 1032.0
20190824210126 48 141 0.0 1.0 0.00 0.00 0.00 33 1032.0
20190824204642 48 141 0.0 0.0 0.00 0.00 0.00 33 1032.0
20190824203141 50 141 0.0 0.0 0.00 0.00 0.00 33 1032.1
20190824201629 51 141 0.0 1.0 0.00 0.00 0.00 30 1032.1
20190824200135 52 168 0.0 0.0 0.00 0.00 0.00 27 1032.3
20190824194634 54 168 0.0 4.0 0.00 0.00 0.00 25 1032.0
20190824193138 54 335 1.0 3.0 0.00 0.00 0.00 24 1031.9
20190824191641 55 344 1.0 3.0 0.00 0.00 0.00 23 1031.9
20190824184625 57 129 0.0 2.0 0.00 0.00 0.00 21 1031.7
20190824183129 57 327 1.0 4.0 0.00 0.00 0.00 20 1031.7
20190824181635 57 121 1.0 6.0 0.00 0.00 0.00 20 1031.6
20190824180215 58 99 0.0 2.0 0.00 0.00 0.00 19 1031.5
20190824174638 58 134 0.0 2.0 0.00 0.00 0.00 19 1031.3
20190824171646 59 134 0.0 1.0 0.00 0.00 0.00 21 1030.9
20190824170141 60 135 0.0 1.0 0.00 0.00 0.00 19 1030.8
20190824164638 61 135 0.0 1.0 0.00 0.00 0.00 18 1030.8
20190824163127 62 130 0.0 0.0 0.00 0.00 0.00 18 1030.7
20190824161626 64 129 0.0 0.0 0.00 0.00 0.00 16 1030.6
20190824160130 67 128 0.0 1.0 0.00 0.00 0.00 15 1030.5